Time;durP1;ratioP1;P1;durP2;ratioP2;P2;SDS_P1;SDS_P2;PMS_P1;PMS_P2;Temp;Humidity;BMP_temperature;BMP_pressure;BME280_temperature;BME280_humidity;BME280_pressure;Samples;Min_cycle;Max_cycle;Signal;HPM_P1;HPM_P2
2022/11/30 03:27:21;;;;;;;24.90;7.30;;;;;;;2.89;92.37;101550.52;104425;1310;1002497;-72
2022/11/30 03:29:47;;;;;;;23.70;8.60;;;;;;;5.04;82.36;101540.58;105536;1310;21992;-69
2022/11/30 03:32:13;;;;;;;16.10;7.60;;;;;;;5.51;78.40;101532.13;105570;1310;21956;-70
2022/11/30 03:34:39;;;;;;;27.70;8.40;;;;;;;5.82;76.30;101527.21;105613;1310;21949;-72
2022/11/30 03:37:05;;;;;;;22.80;8.10;;;;;;;6.28;74.48;101520.86;105677;1307;22005;-71
2022/11/30 03:39:31;;;;;;;25.30;8.30;;;;;;;6.26;73.66;101519.59;105396;1306;318520;-70
2022/11/30 03:41:57;;;;;;;15.00;6.60;;;;;;;6.19;73.31;101524.33;106036;1305;21958;-72
2022/11/30 03:44:23;;;;;;;23.30;7.20;;;;;;;6.19;73.05;101525.35;105951;1307;21991;-72
2022/11/30 03:46:48;;;;;;;16.20;5.90;;;;;;;6.41;72.51;101525.69;105973;1307;21959;-70
2022/11/30 03:49:15;;;;;;;18.20;5.60;;;;;;;6.62;71.66;101526.70;105948;1307;22011;-72
2022/11/30 03:51:41;;;;;;;19.90;5.80;;;;;;;6.73;71.45;101524.48;105581;1306;21970;-70
2022/11/30 03:54:07;;;;;;;19.80;6.50;;;;;;;6.66;71.33;101529.59;105941;1307;21967;-70
2022/11/30 03:56:32;;;;;;;15.80;5.60;;;;;;;6.57;71.64;101526.60;105919;1306;21976;-69
2022/11/30 03:58:58;;;;;;;15.80;4.90;;;;;;;6.71;71.33;101525.14;106028;1307;21966;-69
2022/11/30 04:01:24;;;;;;;12.70;4.70;;;;;;;6.46;72.02;101526.67;105928;1303;22008;-70
2022/11/30 04:03:50;;;;;;;10.80;4.40;;;;;;;6.37;72.29;101529.45;105618;1306;22004;-69
2022/11/30 04:06:16;;;;;;;12.50;4.90;;;;;;;6.39;72.19;101528.64;105948;1307;21969;-72
2022/11/30 04:08:42;;;;;;;13.30;4.20;;;;;;;6.51;71.58;101525.74;105692;1306;21950;-72
2022/11/30 04:11:08;;;;;;;20.90;5.50;;;;;;;6.66;70.82;101519.80;105907;1306;21966;-72
2022/11/30 04:13:35;;;;;;;17.10;4.60;;;;;;;6.79;70.00;101516.61;105974;1307;21968;-72
2022/11/30 04:16:01;;;;;;;23.10;5.40;;;;;;;6.63;70.23;101517.83;106003;1303;21954;-72
2022/11/30 04:18:27;;;;;;;11.40;4.40;;;;;;;6.61;70.55;101512.73;105687;1306;21965;-72
2022/11/30 04:20:54;;;;;;;13.90;4.50;;;;;;;6.70;70.16;101508.73;105956;1306;23083;-70
2022/11/30 04:23:20;;;;;;;17.50;5.10;;;;;;;6.66;69.94;101509.35;105853;1306;21964;-69
2022/11/30 04:25:46;;;;;;;13.70;4.90;;;;;;;6.65;69.56;101508.45;105974;1301;21957;-72
2022/11/30 04:28:13;;;;;;;13.90;5.60;;;;;;;6.80;69.07;101509.46;105902;1306;21978;-72
2022/11/30 04:30:39;;;;;;;14.70;4.90;;;;;;;6.82;69.26;101510.21;105864;1306;21971;-72
2022/11/30 04:33:05;;;;;;;17.80;4.80;;;;;;;6.71;69.55;101516.08;105227;1307;1002690;-72
2022/11/30 04:35:31;;;;;;;14.90;4.50;;;;;;;6.72;69.18;101522.20;105943;1298;21960;-71
2022/11/30 04:37:58;;;;;;;13.10;4.30;;;;;;;6.61;69.13;101524.92;105984;1307;21970;-69
2022/11/30 04:40:23;;;;;;;12.80;4.40;;;;;;;6.73;68.64;101522.40;105975;1305;23448;-69
2022/11/30 04:42:49;;;;;;;10.60;5.00;;;;;;;7.05;68.06;101527.42;103041;1307;1003389;-72
2022/11/30 04:45:15;;;;;;;13.00;5.00;;;;;;;6.69;68.30;101528.75;105650;1306;23683;-72
2022/11/30 04:47:41;;;;;;;12.10;5.10;;;;;;;6.42;69.01;101530.08;105216;1307;1002338;-70
2022/11/30 04:50:07;;;;;;;11.00;4.40;;;;;;;6.37;69.22;101530.50;105634;1307;21962;-72
2022/11/30 04:52:34;;;;;;;13.30;4.90;;;;;;;6.33;69.63;101530.91;105908;1306;23856;-72
2022/11/30 04:54:59;;;;;;;11.50;4.40;;;;;;;6.26;70.03;101540.18;105960;1296;22502;-72
2022/11/30 04:57:26;;;;;;;17.20;5.70;;;;;;;6.21;70.12;101540.73;105888;1306;21960;-73
2022/11/30 04:59:53;;;;;;;13.10;4.80;;;;;;;6.25;70.05;101540.50;105777;1306;21972;-70
2022/11/30 05:02:20;;;;;;;11.70;5.20;;;;;;;6.31;69.96;101544.30;105678;1306;21968;-72
2022/11/30 05:04:46;;;;;;;13.50;4.80;;;;;;;6.37;69.90;101550.88;105507;1307;1003210;-70
2022/11/30 05:07:12;;;;;;;11.60;4.50;;;;;;;6.39;69.72;101555.11;105994;1307;23748;-74
2022/11/30 05:09:38;;;;;;;13.40;4.00;;;;;;;6.36;69.59;101557.84;105860;1306;22044;-70
2022/11/30 05:12:04;;;;;;;10.00;3.90;;;;;;;6.77;68.73;101559.98;105940;1307;22006;-74
2022/11/30 05:14:30;;;;;;;12.50;4.50;;;;;;;7.15;67.55;101566.23;105948;1307;23605;-74
2022/11/30 05:16:56;;;;;;;11.30;4.20;;;;;;;7.25;67.22;101562.94;105953;1304;21970;-74
2022/11/30 05:19:22;;;;;;;11.20;4.60;;;;;;;7.36;66.85;101562.45;105919;1292;21978;-70
2022/11/30 05:21:48;;;;;;;13.50;5.40;;;;;;;7.42;66.43;101567.63;105909;1300;21971;-69
2022/11/30 05:24:13;;;;;;;12.00;4.40;;;;;;;7.46;65.83;101569.45;105949;1306;21979;-72
2022/11/30 05:26:39;;;;;;;13.80;5.00;;;;;;;7.43;66.15;101570.45;105959;1304;21975;-69
2022/11/30 05:29:05;;;;;;;11.70;4.80;;;;;;;7.47;66.32;101572.46;105952;1307;21971;-70
2022/11/30 05:31:32;;;;;;;11.60;4.10;;;;;;;7.55;66.30;101577.66;106003;1300;21961;-71
2022/11/30 05:33:57;;;;;;;16.20;4.60;;;;;;;7.53;66.33;101581.81;105947;1307;21957;-70
2022/11/30 05:36:23;;;;;;;21.90;5.00;;;;;;;7.62;65.97;101580.23;105957;1303;21956;-71
2022/11/30 05:38:49;;;;;;;23.60;5.00;;;;;;;7.78;65.58;101579.67;105969;1307;21954;-70
2022/11/30 05:41:15;;;;;;;20.00;5.80;;;;;;;7.84;64.94;101585.55;105945;1306;21963;-72
2022/11/30 05:43:40;;;;;;;18.80;5.70;;;;;;;7.77;64.99;101588.03;105854;1306;21970;-71
2022/11/30 05:46:07;;;;;;;17.80;5.30;;;;;;;7.78;64.96;101582.27;105778;1306;21973;-68
2022/11/30 05:48:33;;;;;;;21.00;6.10;;;;;;;7.61;65.31;101577.08;105629;1306;23635;-69
2022/11/30 05:51:07;;;;;;;17.00;5.10;;;;;;;7.63;65.33;101580.98;105761;1306;21957;-69
2022/11/30 05:53:33;;;;;;;12.70;4.40;;;;;;;7.76;64.74;101586.98;105750;1303;23103;-71
2022/11/30 05:56:06;;;;;;;15.30;4.50;;;;;;;7.64;64.89;101592.67;106032;1307;22005;-70
2022/11/30 05:58:33;;;;;;;19.70;5.60;;;;;;;7.62;65.15;101599.64;105918;1305;21949;-70
2022/11/30 06:00:58;;;;;;;12.60;4.90;;;;;;;7.66;64.68;101602.69;105801;1306;21961;-71
2022/11/30 06:03:24;;;;;;;9.70;4.20;;;;;;;7.65;64.57;101601.09;105804;1306;21957;-70
2022/11/30 06:05:51;;;;;;;12.70;4.70;;;;;;;7.64;64.49;101601.92;105955;1306;21974;-70
2022/11/30 06:08:17;;;;;;;9.10;3.80;;;;;;;7.64;64.60;101604.56;105895;1302;21965;-71
2022/11/30 06:10:43;;;;;;;11.40;4.80;;;;;;;7.59;64.49;101603.77;106048;1306;21961;-72
2022/11/30 06:13:09;;;;;;;12.00;5.50;;;;;;;7.50;64.67;101600.45;105926;1306;23284;-72
2022/11/30 06:15:36;;;;;;;12.10;4.20;;;;;;;7.48;65.02;101601.12;105920;1304;21969;-72
2022/11/30 06:18:03;;;;;;;10.90;4.90;;;;;;;7.48;65.07;101606.52;106045;1301;21960;-69
2022/11/30 06:20:29;;;;;;;8.60;4.10;;;;;;;7.46;65.13;101602.65;105648;1304;21967;-71
2022/11/30 06:22:56;;;;;;;12.40;4.30;;;;;;;7.47;64.97;101606.52;105885;1303;21983;-67
2022/11/30 06:25:22;;;;;;;11.00;4.10;;;;;;;7.53;65.02;101611.35;105780;1300;22144;-67
2022/11/30 06:27:48;;;;;;;10.40;4.20;;;;;;;7.58;64.97;101610.22;105831;1306;21974;-71
2022/11/30 06:30:14;;;;;;;11.50;4.50;;;;;;;7.65;64.80;101609.99;105823;1298;24013;-71
2022/11/30 06:32:46;;;;;;;12.60;4.40;;;;;;;7.45;65.04;101618.85;105972;1302;22001;-70
2022/11/30 06:35:12;;;;;;;8.80;4.60;;;;;;;7.30;65.46;101619.08;105775;1306;21969;-70
2022/11/30 06:37:38;;;;;;;8.70;4.00;;;;;;;7.25;66.07;101615.48;105940;1305;22031;-70
2022/11/30 06:40:06;;;;;;;7.90;3.90;;;;;;;7.30;65.87;101610.71;105814;1306;22006;-70
2022/11/30 06:42:32;;;;;;;11.30;4.40;;;;;;;7.29;65.70;101609.81;105653;1306;21965;-68
2022/11/30 06:44:58;;;;;;;9.70;4.20;;;;;;;7.25;65.65;101614.45;105998;1304;21961;-69
2022/11/30 06:47:24;;;;;;;11.20;5.10;;;;;;;7.21;65.66;101613.48;105880;1306;21947;-68
2022/11/30 06:49:50;;;;;;;9.20;4.20;;;;;;;7.19;65.78;101610.82;105633;1306;21965;-71
2022/11/30 06:52:16;;;;;;;10.00;4.60;;;;;;;7.12;66.03;101604.73;105781;1306;21964;-70
2022/11/30 06:54:42;;;;;;;10.20;4.20;;;;;;;7.07;66.16;101609.16;105908;1305;21964;-69
2022/11/30 06:57:08;;;;;;;10.50;4.30;;;;;;;7.12;66.12;101616.26;105852;1305;21951;-70
2022/11/30 06:59:35;;;;;;;10.20;4.40;;;;;;;7.17;66.12;101613.20;105874;1306;21951;-68
2022/11/30 07:02:01;;;;;;;12.80;4.80;;;;;;;7.16;65.91;101611.28;105852;1306;22441;-69
2022/11/30 07:04:27;;;;;;;9.00;4.20;;;;;;;7.13;65.87;101617.34;105853;1304;21956;-69
2022/11/30 07:06:53;;;;;;;9.70;4.50;;;;;;;7.15;65.95;101621.55;105855;1306;21956;-69
2022/11/30 07:09:18;;;;;;;11.90;4.70;;;;;;;7.12;65.98;101621.32;105781;1306;23609;-68
2022/11/30 07:11:46;;;;;;;9.80;4.20;;;;;;;7.16;65.73;101613.70;105931;1306;21970;-71
2022/11/30 07:14:12;;;;;;;12.40;4.70;;;;;;;7.20;65.54;101613.10;105820;1306;21964;-70
2022/11/30 07:16:39;;;;;;;8.20;5.00;;;;;;;7.22;65.50;101615.23;105808;1295;21969;-69
2022/11/30 07:19:05;;;;;;;9.70;4.90;;;;;;;7.20;65.29;101614.86;105782;1306;21980;-69
2022/11/30 07:21:31;;;;;;;12.10;4.80;;;;;;;7.27;65.23;101611.51;105906;1306;21974;-70
2022/11/30 07:26:42;;;;;;;11.40;5.00;;;;;;;7.27;65.02;101606.27;105886;1306;22001;-71
2022/11/30 07:29:07;;;;;;;10.50;5.00;;;;;;;7.29;64.71;101603.50;105913;1301;21971;-70
2022/11/30 07:31:34;;;;;;;10.40;4.80;;;;;;;7.30;64.50;101602.30;105983;1300;21954;-72
2022/11/30 07:34:04;;;;;;;12.10;4.90;;;;;;;7.25;64.61;101600.98;105913;1305;21950;-71
2022/11/30 07:36:30;;;;;;;11.40;4.60;;;;;;;7.22;64.86;101605.46;105171;1306;1003229;-71
2022/11/30 07:38:56;;;;;;;12.80;5.60;;;;;;;7.29;64.46;101607.87;105915;1306;21958;-72
2022/11/30 07:41:22;;;;;;;11.20;4.60;;;;;;;7.41;64.43;101609.53;105905;1306;21962;-70
2022/11/30 07:43:47;;;;;;;9.60;5.10;;;;;;;7.54;64.08;101611.37;105897;1302;21971;-71
2022/11/30 07:46:13;;;;;;;11.50;5.40;;;;;;;7.59;63.71;101609.36;105844;1305;21956;-70
2022/11/30 07:48:39;;;;;;;9.90;4.50;;;;;;;7.74;63.49;101609.13;105683;1306;22007;-71
2022/11/30 07:51:07;;;;;;;9.90;4.60;;;;;;;7.62;63.58;101612.03;105956;1306;21965;-70
2022/11/30 07:53:33;;;;;;;11.00;5.30;;;;;;;7.64;63.63;101618.02;106030;1303;21953;-71
2022/11/30 07:56:07;;;;;;;14.00;4.70;;;;;;;7.64;63.85;101615.91;105908;1296;21958;-70
2022/11/30 07:58:33;;;;;;;12.30;4.50;;;;;;;7.66;63.93;101611.23;105741;1304;21962;-71
